Beaufort, SC (29903)

5:34 PM EDT on August 25, 2016 (GMT -0400)
Shadow Moss | | Change Station

Elev 46 ft 32.41 °N, 80.76 °W | Updated 2 minutes ago

Partly Cloudy
Partly Cloudy
91.8 °F
Feels Like 99 °F
N
5.8
Wind Variable Wind from NNE

Today
High -- | Low -- °F
--% Chance of Precip.
Yesterday
High -- | Low -- °F
Precip. -- in
Pressure 30.08 in
Visibility 10.0 miles
Clouds Few 4000 ft
Heat Index 99 °F
Dew Point 72 °F
Humidity 52%
Rainfall 0.00 in
Snow Depth Not available.
6:53 AM 7:55 PM
Last Quarter, 42% visible
METAR KNBC 252056Z 12005KT 10SM FEW040 32/21 A3008 RMK AO2 SLP184 T03170211 56020
Pressure 30.08 in
Visibility 10.0 miles
Clouds Few 4000 ft
Heat Index 99 °F
Dew Point 72 °F
Humidity 52%
Rainfall 0.00 in
Snow Depth Not available.
6:53 AM 7:55 PM
Last Quarter, 42% visible
METAR KNBC 252056Z 12005KT 10SM FEW040 32/21 A3008 RMK AO2 SLP184 T03170211 56020
A tropical disturbance pushing toward the Bahamas, is expected to develop into a tropical depression or storm, and will likely target Florida and the Gulf Coast this weekend into next week.

Right now, the disturbance remains a broad area of low pressure pushing through the Dominican Republic and Haiti, headed toward the southeast Bahamas. Rainfall totals over 3 inches (with locally higher amounts) are expected in HispaƱiola, particularly over elevated terrain.

10-Day Weather Forecast

Almanac

Astronomy

Aug. 25, 2016 Rise Set
Actual Time
Civil Twilight
Nautical Twilight
Astronomical Twilight
Moon
Length of Visible Light
Length of Day
Tomorrow will be .
, % of the Moon is Illuminated

Today's Extremes

State Highs State Lows

Community

WunderPhotos

Upload Photos

1,934,943 photos uploaded!

WunderBlog® & News

Nearby

Air Quality

  Air Quality AQ Index Pollutant
Not available.

Snow Depth

Station Depth Elevation

Earthquake Activity

City Distance Mag. Time & Date
Minimum magnitude displayed is 2.5.

Coastal Water Temperatures

Place Temperature

Stations

Nearby Weather Stations

Station Location Temp. Windchill Dew Point Humidity Wind Precip. Elev Updated Type
                   

Watches & Warnings

There are currently no watches in effect.